Arrasate-Mondragon, Spain
Current Conditions -  °F | °C
As of 3:30 AM on Thursday 27 Nov 2014 (Local Time) from LEVT Reporting Station
Moderate Fog Moderate Fog  
Wind Chill: 45°   Ceiling: 200
Heat Index: 45°   Visibility: 0.25mi
Dew Point: 45°   Wind: 0mph
Humidity: 100%   Direction: NA
Pressure: 29.74"   Gusts: NA
Location:  43.06°N, 2.49°W
Report Text: LEVT 270230Z 00000KT 0400 R04/0400N FG VV002 07/07 Q1007
Loading
Personal Weather Stations






























Interactive Weather Map New forecast layout! Learn more

10-Day Weather Forecast

Advertisements
Track Severe Weather on mobile